Time;durP1;ratioP1;P1;durP2;ratioP2;P2;SDS_P1;SDS_P2;PMS_P1;PMS_P2;Temp;Humidity;BMP_temperature;BMP_pressure;BME280_temperature;BME280_humidity;BME280_pressure;Samples;Min_cycle;Max_cycle;Signal;HPM_P1;HPM_P2
2023/08/16 00:00:57;;;;;;;;;2.00;2.00;;;;;28.54;40.93;101810.19;5075536;27;45337;-77
2023/08/16 00:03:23;;;;;;;;;1.00;1.00;;;;;28.40;40.81;101789.53;5075528;28;45424;-76
2023/08/16 00:05:48;;;;;;;;;1.00;1.00;;;;;28.59;41.03;101826.47;5076412;27;45294;-77
2023/08/16 00:08:14;;;;;;;;;1.00;1.00;;;;;28.53;40.68;101820.06;5078925;27;45400;-76
2023/08/16 00:10:39;;;;;;;;;1.00;1.00;;;;;28.52;40.70;101819.25;5063600;28;45588;-77
2023/08/16 00:13:05;;;;;;;;;2.00;2.00;;;;;28.55;40.48;101817.22;5078750;27;45404;-77
2023/08/16 00:15:30;;;;;;;;;1.00;1.00;;;;;28.55;40.69;101814.53;5078805;28;45355;-77
2023/08/16 00:17:56;;;;;;;;;1.00;1.00;;;;;28.52;41.08;101808.53;5078910;27;45298;-77
2023/08/16 00:20:21;;;;;;;;;0.67;0.67;;;;;28.54;40.86;101802.16;5060473;28;45285;-77
2023/08/16 00:22:49;;;;;;;;;1.00;1.00;;;;;28.54;40.79;101803.00;5078734;27;45900;-76
2023/08/16 00:25:15;;;;;;;;;1.00;1.00;;;;;28.56;40.80;101819.69;5078727;27;45335;-77
2023/08/16 00:27:41;;;;;;;;;2.00;1.00;;;;;28.53;41.12;101817.41;5060440;27;45507;-77
2023/08/16 00:30:08;;;;;;;;;2.00;2.00;;;;;28.52;40.96;101810.41;5078432;28;45317;-77
2023/08/16 00:32:34;;;;;;;;;1.00;1.00;;;;;28.49;41.00;101808.13;5078494;27;46373;-77
2023/08/16 00:34:59;;;;;;;;;1.00;1.00;;;;;28.53;40.96;101809.38;5059928;28;45943;-77
2023/08/16 00:37:25;;;;;;;;;1.33;1.33;;;;;28.45;40.75;101802.34;5060435;28;45401;-77
2023/08/16 00:39:50;;;;;;;;;1.00;1.00;;;;;28.51;40.97;101811.44;5078543;27;45411;-77
2023/08/16 00:42:15;;;;;;;;;1.00;1.00;;;;;28.53;41.03;101806.69;5060160;28;47400;-77
2023/08/16 00:44:41;;;;;;;;;0.33;0.33;;;;;28.54;40.84;101803.00;5060109;28;46164;-77
2023/08/16 00:47:06;;;;;;;;;1.00;1.00;;;;;28.51;40.80;101803.41;5078601;28;45291;-77
2023/08/16 00:49:32;;;;;;;;;0.00;0.00;;;;;28.54;41.02;101802.16;5078200;27;45293;-77
2023/08/16 00:52:00;;;;;;;;;1.67;1.67;;;;;28.52;40.72;101802.38;5078058;27;45511;-77
2023/08/16 00:54:25;;;;;;;;;1.67;1.67;;;;;28.54;40.88;101802.16;5077717;28;45403;-77
2023/08/16 00:56:51;;;;;;;;;1.00;1.00;;;;;28.52;40.71;101803.19;5060082;28;45912;-76
2023/08/16 00:59:17;;;;;;;;;2.67;1.33;;;;;28.54;41.04;101808.34;5078408;27;45403;-77
2023/08/16 01:01:45;;;;;;;;;0.67;0.67;;;;;28.56;41.30;101808.97;5059668;28;45459;-77
2023/08/16 01:04:10;;;;;;;;;1.00;1.00;;;;;28.51;40.43;101806.06;5077669;27;45365;-77
2023/08/16 01:06:35;;;;;;;;;2.00;2.00;;;;;28.47;40.66;101799.50;5077938;28;45302;-77
2023/08/16 01:09:01;;;;;;;;;1.00;1.00;;;;;28.56;40.52;101808.97;5076119;27;45600;-77
2023/08/16 01:11:35;;;;;;;;;0.33;0.33;;;;;28.51;40.50;101795.38;5059653;28;47220;-77
2023/08/16 01:14:08;;;;;;;;;1.67;1.67;;;;;28.42;40.68;101780.50;5077983;28;45386;-77
2023/08/16 01:16:35;;;;;;;;;0.00;0.00;;;;;28.53;40.71;101796.00;5059807;28;45356;-77
2023/08/16 01:19:06;;;;;;;;;1.00;1.00;;;;;28.55;40.43;101801.16;5059451;28;45538;-77
2023/08/16 01:21:38;;;;;;;;;1.00;1.00;;;;;28.56;40.77;101802.78;5059230;28;45780;-77
2023/08/16 01:24:03;;;;;;;;;1.00;1.00;;;;;28.54;40.78;101803.00;5077956;27;45284;-76
2023/08/16 01:26:34;;;;;;;;;1.67;1.67;;;;;28.54;40.78;101796.81;5059809;27;45292;-76
2023/08/16 01:29:01;;;;;;;;;0.33;0.33;;;;;28.52;40.83;101787.13;5059581;28;45367;-77
2023/08/16 01:31:27;;;;;;;;;1.67;1.67;;;;;28.55;40.71;101791.25;5059232;28;46603;-77
2023/08/16 01:33:53;;;;;;;;;0.67;0.67;;;;;28.50;40.56;101781.16;5076599;27;45360;-77
2023/08/16 01:36:19;;;;;;;;;0.67;0.67;;;;;28.52;40.40;101778.28;5059102;27;45442;-77
2023/08/16 01:38:45;;;;;;;;;1.33;1.33;;;;;28.51;41.20;101781.97;5058887;28;45307;-78
2023/08/16 01:41:20;;;;;;;;;1.00;1.00;;;;;28.55;40.92;101788.56;5059115;28;48063;-77
2023/08/16 01:43:47;;;;;;;;;0.00;0.00;;;;;28.53;40.72;101790.63;5077392;27;45453;-76
2023/08/16 01:46:14;;;;;;;;;1.00;1.00;;;;;28.55;40.60;101793.94;5077551;27;45335;-77
2023/08/16 01:48:40;;;;;;;;;1.00;1.00;;;;;28.47;40.72;101781.56;5076645;27;45359;-77
2023/08/16 01:51:06;;;;;;;;;0.00;0.00;;;;;28.46;41.07;101776.41;5059120;28;47528;-77
2023/08/16 01:53:32;;;;;;;;;1.00;1.00;;;;;28.47;40.97;101781.56;5077147;27;45296;-77
2023/08/16 01:55:58;;;;;;;;;3.00;1.00;;;;;28.48;40.93;101777.03;5077544;28;45358;-77
2023/08/16 01:58:23;;;;;;;;;1.67;1.67;;;;;28.38;40.71;101767.50;5077315;27;45302;-77
2023/08/16 02:00:48;;;;;;;;;1.00;1.00;;;;;28.49;40.74;101786.72;5076937;28;45372;-77
2023/08/16 02:03:14;;;;;;;;;0.67;0.67;;;;;28.49;40.57;101797.44;5076925;28;45452;-77
2023/08/16 02:05:41;;;;;;;;;2.33;1.00;;;;;28.46;40.86;101797.81;5077300;28;45360;-77
2023/08/16 02:08:06;;;;;;;;;1.00;1.00;;;;;28.47;40.44;101802.97;5077166;27;45416;-77
2023/08/16 02:10:32;;;;;;;;;1.00;1.00;;;;;28.48;41.14;101801.13;5076837;27;46102;-77
2023/08/16 02:12:57;;;;;;;;;1.00;1.00;;;;;28.50;41.00;101807.09;5077037;27;45392;-77
2023/08/16 02:15:22;;;;;;;;;1.00;1.00;;;;;28.52;40.80;101803.19;5077169;28;45653;-77
2023/08/16 02:17:48;;;;;;;;;1.33;1.33;;;;;28.53;40.97;101809.38;5076903;28;45358;-77
2023/08/16 02:20:13;;;;;;;;;1.00;1.00;;;;;28.44;40.75;101792.66;5076957;27;45399;-77
2023/08/16 02:22:39;;;;;;;;;1.00;1.00;;;;;28.49;40.69;101789.41;5076950;28;45378;-77
2023/08/16 02:25:05;;;;;;;;;2.00;1.00;;;;;28.52;41.00;101799.72;5058747;28;45438;-77
2023/08/16 02:27:32;;;;;;;;;1.00;1.00;;;;;28.53;41.07;101801.34;5075093;28;45526;-77
2023/08/16 02:29:58;;;;;;;;;2.33;1.00;;;;;28.52;40.57;101800.50;5058270;28;46627;-77
2023/08/16 02:32:23;;;;;;;;;1.33;1.33;;;;;28.49;40.56;101790.22;5076371;28;45250;-77
2023/08/16 02:34:48;;;;;;;;;0.67;0.67;;;;;28.49;40.67;101782.19;5076805;28;45427;-77
2023/08/16 02:37:14;;;;;;;;;2.00;1.00;;;;;28.54;40.46;101783.44;5076751;28;45214;-77
2023/08/16 02:39:39;;;;;;;;;1.67;1.67;;;;;28.48;40.65;101780.53;5076636;28;45426;-77
2023/08/16 02:42:05;;;;;;;;;1.00;1.00;;;;;28.52;40.99;101784.44;5076665;28;45449;-77
2023/08/16 02:44:30;;;;;;;;;1.00;1.00;;;;;28.49;40.79;101784.88;5076828;27;45371;-77
2023/08/16 02:46:55;;;;;;;;;1.00;1.00;;;;;28.53;40.68;101779.94;5076244;27;45493;-76
2023/08/16 02:49:21;;;;;;;;;1.00;1.00;;;;;28.49;40.74;101781.38;5076295;28;46544;-77
2023/08/16 02:51:46;;;;;;;;;1.00;1.00;;;;;28.52;41.18;101783.66;5076363;28;45387;-77
2023/08/16 02:54:11;;;;;;;;;1.00;1.00;;;;;28.47;40.95;101773.53;5076549;27;45345;-77
2023/08/16 02:56:37;;;;;;;;;0.33;0.33;;;;;28.51;41.13;101781.97;5075304;27;45705;-77
2023/08/16 02:59:02;;;;;;;;;0.00;0.00;;;;;28.54;41.08;101789.63;5076304;27;45359;-77
2023/08/16 03:01:28;;;;;;;;;1.00;1.00;;;;;28.47;40.46;101778.88;5075807;27;45371;-77
2023/08/16 03:03:53;;;;;;;;;1.00;1.00;;;;;28.49;40.32;101786.72;5058352;28;45747;-77
2023/08/16 03:06:18;;;;;;;;;0.67;0.67;;;;;28.40;40.65;101767.31;5076288;28;45296;-77
2023/08/16 03:08:44;;;;;;;;;1.00;1.00;;;;;28.52;40.52;101784.44;5075918;27;46323;-77
2023/08/16 03:11:11;;;;;;;;;1.00;1.00;;;;;28.51;40.88;101787.34;5076229;27;45349;-77
2023/08/16 03:13:36;;;;;;;;;0.00;0.00;;;;;28.52;40.80;101787.13;5076119;27;45412;-77
2023/08/16 03:16:01;;;;;;;;;2.00;2.00;;;;;28.48;40.38;101785.06;5075890;28;45361;-77
2023/08/16 03:18:27;;;;;;;;;1.00;1.00;;;;;28.53;40.95;101798.66;5075999;27;45473;-77
2023/08/16 03:20:52;;;;;;;;;1.00;1.00;;;;;28.51;41.04;101792.69;5075886;28;45304;-77
2023/08/16 03:23:17;;;;;;;;;3.33;1.00;;;;;28.50;40.91;101785.69;5076170;28;45270;-77
2023/08/16 03:25:44;;;;;;;;;2.00;2.00;;;;;28.52;41.12;101791.69;5075970;28;45442;-77
2023/08/16 03:28:09;;;;;;;;;0.00;0.00;;;;;28.54;40.88;101796.81;5075741;28;45540;-77
2023/08/16 03:30:35;;;;;;;;;1.00;1.00;;;;;28.52;40.36;101789.00;5075470;28;45419;-77
2023/08/16 03:33:00;;;;;;;;;1.00;1.00;;;;;28.50;40.64;101783.00;5076059;28;45563;-78
2023/08/16 03:35:25;;;;;;;;;1.00;1.00;;;;;28.46;40.99;101779.91;5076037;27;45375;-77
2023/08/16 03:37:51;;;;;;;;;0.00;0.00;;;;;28.39;40.69;101766.47;5075827;28;45448;-77
2023/08/16 03:40:16;;;;;;;;;1.00;1.00;;;;;28.50;40.83;101781.16;5058395;28;45450;-77
2023/08/16 03:42:42;;;;;;;;;1.00;1.00;;;;;28.47;40.83;101776.19;5079297;27;45450;-76
2023/08/16 03:45:07;;;;;;;;;1.00;1.00;;;;;28.49;41.06;101781.38;5079520;27;45451;-76
2023/08/16 03:47:33;;;;;;;;;1.00;1.00;;;;;28.49;41.72;101784.03;5079353;27;46343;-77
2023/08/16 03:49:59;;;;;;;;;1.00;1.00;;;;;28.52;41.17;101792.47;5061183;28;45307;-77
2023/08/16 03:52:25;;;;;;;;;0.67;0.67;;;;;28.50;40.51;101780.31;5061051;27;45442;-77
2023/08/16 03:54:52;;;;;;;;;1.00;1.00;;;;;28.51;40.79;101776.63;5079045;27;45470;-77
2023/08/16 03:57:18;;;;;;;;;0.00;0.00;;;;;28.50;40.91;101775.81;5078828;27;45464;-77
2023/08/16 03:59:43;;;;;;;;;1.00;1.00;;;;;28.47;40.88;101773.53;5060856;27;45415;-77
2023/08/16 04:02:08;;;;;;;;;1.00;1.00;;;;;28.47;40.72;101770.84;5079251;28;45253;-77
2023/08/16 04:04:34;;;;;;;;;1.00;1.00;;;;;28.48;40.89;101769.84;5077815;28;45584;-76
2023/08/16 04:06:59;;;;;;;;;1.00;1.00;;;;;28.48;40.85;101763.66;5077604;28;47050;-77
2023/08/16 04:09:25;;;;;;;;;1.00;1.00;;;;;28.45;41.21;101762.19;5078736;27;45511;-77
2023/08/16 04:11:51;;;;;;;;;1.00;1.00;;;;;28.50;40.88;101774.97;5078753;27;45325;-77
2023/08/16 04:14:16;;;;;;;;;0.33;0.33;;;;;28.48;41.07;101777.88;5060700;27;45372;-76
2023/08/16 04:16:42;;;;;;;;;1.00;1.00;;;;;28.49;40.99;101773.34;5060532;28;46690;-77
2023/08/16 04:19:07;;;;;;;;;1.00;1.00;;;;;28.50;40.78;101772.28;5078707;27;45271;-77
2023/08/16 04:21:32;;;;;;;;;1.00;1.00;;;;;28.47;40.74;101762.03;5060199;27;45465;-77
2023/08/16 04:23:58;;;;;;;;;1.00;1.00;;;;;28.47;40.48;101770.03;5078936;27;45443;-76
2023/08/16 04:26:23;;;;;;;;;1.00;1.00;;;;;28.47;41.23;101767.38;5078265;27;46975;-77
2023/08/16 04:28:49;;;;;;;;;0.00;0.00;;;;;28.48;40.63;101769.00;5078515;28;45351;-77
2023/08/16 04:31:14;;;;;;;;;1.00;1.00;;;;;28.47;40.72;101773.53;5078975;27;45315;-77
2023/08/16 04:33:39;;;;;;;;;1.00;1.00;;;;;28.44;40.90;101763.22;5078849;28;45310;-77
2023/08/16 04:36:05;;;;;;;;;0.00;0.00;;;;;28.48;41.12;101780.53;5060350;28;47322;-77
2023/08/16 04:38:30;;;;;;;;;2.67;1.00;;;;;28.47;40.69;101775.41;5060259;28;45972;-77
2023/08/16 04:40:56;;;;;;;;;1.00;1.00;;;;;28.49;40.39;101776.00;5078513;28;46044;-76
2023/08/16 04:43:21;;;;;;;;;1.00;1.00;;;;;28.47;40.75;101773.53;5078733;27;45561;-76
2023/08/16 04:45:46;;;;;;;;;2.00;1.00;;;;;28.49;41.07;101784.03;5060125;28;47256;-76
2023/08/16 04:48:12;;;;;;;;;0.67;0.67;;;;;28.47;40.62;101786.91;5078499;27;45474;-77
2023/08/16 04:50:37;;;;;;;;;2.00;2.00;;;;;28.49;41.12;101787.56;5078097;27;45787;-76
2023/08/16 04:53:03;;;;;;;;;0.00;0.00;;;;;28.51;41.06;101793.53;5055783;28;45578;-77
2023/08/16 04:55:29;;;;;;;;;1.00;1.00;;;;;28.48;40.53;101785.06;5056286;28;48347;-77
2023/08/16 04:57:55;;;;;;;;;1.00;1.00;;;;;28.46;40.99;101784.44;5056687;28;45431;-77
2023/08/16 05:00:20;;;;;;;;;0.00;0.00;;;;;28.37;40.65;101771.22;5058052;28;45425;-77
2023/08/16 05:02:46;;;;;;;;;3.00;1.00;;;;;28.48;40.39;101795.75;5057806;28;45555;-76
2023/08/16 05:05:11;;;;;;;;;1.00;1.00;;;;;28.46;40.50;101787.13;5057957;28;46346;-77
2023/08/16 05:07:37;;;;;;;;;0.00;0.00;;;;;28.46;40.44;101787.13;5056193;28;45516;-77
2023/08/16 05:10:02;;;;;;;;;1.00;1.00;;;;;28.48;40.51;101790.41;5069663;27;45352;-77
2023/08/16 05:12:28;;;;;;;;;1.00;1.00;;;;;28.49;41.08;101792.06;5078378;27;45383;-76
2023/08/16 05:14:53;;;;;;;;;0.00;0.00;;;;;28.34;40.89;101776.16;5059503;27;47157;-77
2023/08/16 05:17:19;;;;;;;;;0.00;0.00;;;;;28.46;40.94;101795.97;5078099;28;45424;-76
2023/08/16 05:19:44;;;;;;;;;1.00;1.00;;;;;28.37;40.60;101779.22;5078219;27;45391;-77
2023/08/16 05:22:09;;;;;;;;;1.00;1.00;;;;;28.49;40.50;101803.63;5059721;27;45512;-77
2023/08/16 05:24:34;;;;;;;;;2.00;0.33;;;;;28.44;40.61;101784.63;5077259;27;46856;-77
2023/08/16 05:27:00;;;;;;;;;0.00;0.00;;;;;28.45;41.00;101794.31;5059533;27;45407;-76
2023/08/16 05:29:25;;;;;;;;;0.67;0.67;;;;;28.45;40.81;101796.16;5059573;28;45347;-77
2023/08/16 05:31:51;;;;;;;;;1.00;1.00;;;;;28.45;40.81;101801.50;5077972;27;45469;-77
2023/08/16 05:34:18;;;;;;;;;1.00;1.00;;;;;28.44;41.03;101802.53;5077573;27;46428;-77
2023/08/16 05:36:48;;;;;;;;;0.00;0.00;;;;;28.49;41.27;101805.47;5077760;27;45435;-77
2023/08/16 05:39:14;;;;;;;;;0.00;0.00;;;;;28.44;40.94;101800.69;5077289;28;45297;-77
2023/08/16 05:41:40;;;;;;;;;1.00;1.00;;;;;28.48;40.82;101806.47;5077460;28;45347;-77
2023/08/16 05:44:05;;;;;;;;;1.00;1.00;;;;;28.49;41.17;101805.47;5077255;28;46562;-77
2023/08/16 05:46:31;;;;;;;;;1.00;1.00;;;;;28.46;40.94;101806.69;5059116;27;45351;-77
2023/08/16 05:48:56;;;;;;;;;0.33;0.33;;;;;28.43;41.14;101795.50;5077570;27;45276;-76
2023/08/16 05:51:22;;;;;;;;;1.00;1.00;;;;;28.44;40.88;101792.66;5059278;28;45425;-77
2023/08/16 05:53:47;;;;;;;;;0.33;0.33;;;;;28.46;40.68;101790.63;5076856;27;46758;-77
2023/08/16 05:56:12;;;;;;;;;0.00;0.00;;;;;28.44;40.86;101791.81;5077413;27;45393;-77
2023/08/16 05:58:38;;;;;;;;;1.00;1.00;;;;;28.42;40.66;101780.50;5077542;28;45470;-77
2023/08/16 06:01:03;;;;;;;;;1.00;1.00;;;;;28.55;41.06;101803.84;5059116;28;45410;-77
2023/08/16 06:03:28;;;;;;;;;2.00;0.33;;;;;28.50;40.87;101786.50;5076169;28;46430;-77
2023/08/16 06:05:54;;;;;;;;;0.33;0.33;;;;;28.50;40.85;101783.00;5075844;27;45330;-77
2023/08/16 06:08:19;;;;;;;;;2.33;1.00;;;;;28.52;40.80;101773.75;5058767;27;45331;-77
2023/08/16 06:10:45;;;;;;;;;0.00;0.00;;;;;28.74;40.43;101808.41;5077192;27;45396;-77
2023/08/16 06:13:10;;;;;;;;;1.67;1.67;;;;;28.74;40.68;101800.38;5076952;27;47077;-78
2023/08/16 06:15:35;;;;;;;;;1.00;1.00;;;;;28.82;40.73;101803.88;5076973;28;45353;-77
2023/08/16 06:18:01;;;;;;;;;1.00;1.00;;;;;28.86;40.59;101805.09;5077290;27;45482;-77
2023/08/16 06:20:26;;;;;;;;;0.00;0.00;;;;;28.83;40.18;101800.19;5058915;28;45406;-77
2023/08/16 06:22:51;;;;;;;;;0.00;0.00;;;;;28.88;40.43;101813.78;5076584;27;45516;-77
2023/08/16 06:25:17;;;;;;;;;1.00;1.00;;;;;28.76;40.16;101800.16;5076932;28;45359;-77
2023/08/16 06:27:42;;;;;;;;;0.67;0.67;;;;;28.77;40.49;101799.13;5058226;28;45618;-77
2023/08/16 06:30:08;;;;;;;;;1.00;1.00;;;;;28.81;40.76;101810.25;5076943;27;45368;-77
2023/08/16 06:32:33;;;;;;;;;1.67;1.00;;;;;28.76;40.06;101805.50;5076755;27;47101;-77
2023/08/16 06:34:59;;;;;;;;;0.00;0.00;;;;;28.76;39.97;101804.69;5076737;27;45388;-77
2023/08/16 06:37:24;;;;;;;;;0.67;0.67;;;;;28.78;40.19;101806.13;5076602;28;45522;-77
2023/08/16 06:39:49;;;;;;;;;0.33;0.33;;;;;28.83;40.38;101810.88;5076640;27;45440;-77
2023/08/16 06:42:15;;;;;;;;;1.00;1.00;;;;;28.66;40.34;101778.28;5076543;28;45827;-77
2023/08/16 06:44:40;;;;;;;;;0.67;0.00;;;;;28.82;40.33;101801.19;5076670;28;45421;-77
2023/08/16 06:47:06;;;;;;;;;1.00;1.00;;;;;28.91;40.55;101821.38;5076552;27;45885;-77
2023/08/16 06:49:31;;;;;;;;;1.00;1.00;;;;;28.91;40.29;101812.53;5076650;28;45484;-77
2023/08/16 06:51:56;;;;;;;;;1.00;1.00;;;;;28.89;40.32;101820.78;5075922;28;46186;-77
2023/08/16 06:54:22;;;;;;;;;0.67;0.67;;;;;28.94;40.09;101822.81;5076528;27;45324;-77
2023/08/16 06:56:49;;;;;;;;;0.00;0.00;;;;;28.96;40.20;101818.13;5076603;28;45349;-77
2023/08/16 06:59:14;;;;;;;;;1.00;1.00;;;;;28.86;39.98;101818.50;5076534;28;45374;-77
2023/08/16 07:01:40;;;;;;;;;1.00;1.00;;;;;28.93;40.14;101818.53;5076271;27;45347;-77
2023/08/16 07:04:05;;;;;;;;;0.00;0.00;;;;;28.95;40.29;101828.00;5076295;28;45415;-77
2023/08/16 07:06:33;;;;;;;;;0.33;0.33;;;;;28.89;40.58;101819.94;5076252;28;45318;-77
2023/08/16 07:08:59;;;;;;;;;1.00;1.00;;;;;28.89;40.24;101828.81;5076421;27;45376;-77
2023/08/16 07:11:25;;;;;;;;;0.00;0.00;;;;;28.87;40.51;101830.03;5075982;27;47117;-77
2023/08/16 07:13:51;;;;;;;;;1.00;1.00;;;;;28.88;40.33;101832.53;5075844;28;45270;-77
2023/08/16 07:16:17;;;;;;;;;0.67;0.67;;;;;28.87;40.13;101832.72;5075342;28;45305;-76
2023/08/16 07:18:42;;;;;;;;;1.00;1.00;;;;;28.85;39.88;101831.09;5076315;27;45356;-77
2023/08/16 07:21:08;;;;;;;;;0.50;0.50;;;;;28.85;40.27;101831.09;5057397;28;47318;-77
2023/08/16 07:23:33;;;;;;;;;1.00;1.00;;;;;28.87;40.05;101833.53;5076122;28;45314;-77
2023/08/16 07:25:59;;;;;;;;;0.00;0.00;;;;;28.85;39.71;101841.78;5057945;28;45313;-77
2023/08/16 07:28:25;;;;;;;;;0.00;0.00;;;;;28.84;40.08;101834.78;5076059;27;45488;-77
2023/08/16 07:30:54;;;;;;;;;1.00;1.00;;;;;28.88;40.72;101843.25;5075727;28;45399;-77
2023/08/16 07:33:21;;;;;;;;;1.00;1.00;;;;;28.82;40.47;101833.34;5074659;27;45454;-77
2023/08/16 07:35:49;;;;;;;;;0.00;0.00;;;;;28.83;40.12;101835.78;5075643;28;45407;-77
2023/08/16 07:38:15;;;;;;;;;1.00;1.00;;;;;28.87;40.29;101838.91;5074930;28;45367;-77
2023/08/16 07:40:46;;;;;;;;;0.33;0.33;;;;;28.89;40.08;101839.53;5075867;28;46298;-77
2023/08/16 07:43:12;;;;;;;;;1.00;1.00;;;;;28.89;40.31;101834.16;5076017;28;45356;-77
2023/08/16 07:45:37;;;;;;;;;1.00;1.00;;;;;28.85;40.34;101831.09;5075922;27;45392;-77
2023/08/16 07:48:03;;;;;;;;;0.33;0.33;;;;;28.87;40.21;101824.69;5075792;28;45253;-77
2023/08/16 07:50:28;;;;;;;;;0.00;0.00;;;;;28.92;40.08;101839.13;5075297;28;47528;-77
2023/08/16 07:52:54;;;;;;;;;0.67;0.67;;;;;28.93;40.05;101829.22;5075495;27;45410;-77
2023/08/16 07:55:22;;;;;;;;;1.00;1.00;;;;;28.92;39.93;101824.91;5057285;28;45439;-77
2023/08/16 07:57:47;;;;;;;;;0.00;0.00;;;;;28.92;40.27;101822.22;5075451;27;45606;-77
2023/08/16 08:00:14;;;;;;;;;2.00;1.00;;;;;28.94;40.12;101823.66;5056529;28;46610;-77
2023/08/16 08:02:40;;;;;;;;;0.00;0.00;;;;;28.96;40.10;101821.59;5075362;28;45414;-77
2023/08/16 08:05:06;;;;;;;;;1.00;0.00;;;;;28.95;40.80;101817.28;5056896;28;45491;-77
2023/08/16 08:07:32;;;;;;;;;0.00;0.00;;;;;28.95;40.18;101816.47;5075418;27;45559;-77
2023/08/16 08:09:57;;;;;;;;;0.00;0.00;;;;;28.98;40.19;101813.38;5075438;27;46326;-77
2023/08/16 08:12:23;;;;;;;;;1.00;1.00;;;;;29.01;39.98;101812.13;5057277;28;45361;-77
2023/08/16 08:14:48;;;;;;;;;0.00;0.00;;;;;29.04;40.15;101812.53;5075417;28;45308;-77
2023/08/16 08:17:13;;;;;;;;;0.33;0.33;;;;;29.10;40.33;101807.41;5075490;28;45394;-77
2023/08/16 08:19:39;;;;;;;;;0.00;0.00;;;;;29.13;39.94;101815.06;5056489;28;47352;-77
2023/08/16 08:22:04;;;;;;;;;0.00;0.00;;;;;29.07;40.31;101809.47;5075405;28;45391;-77
2023/08/16 08:24:29;;;;;;;;;2.00;1.00;;;;;29.16;39.90;101820.00;5075394;27;45355;-77
2023/08/16 08:26:56;;;;;;;;;1.00;1.00;;;;;29.16;40.11;101825.38;5076726;27;45269;-78
2023/08/16 08:29:23;;;;;;;;;0.67;0.33;;;;;29.16;39.58;101815.47;5078181;27;45538;-77
2023/08/16 08:31:48;;;;;;;;;0.67;0.67;;;;;29.18;39.66;101820.63;5060281;28;45344;-77
2023/08/16 08:34:14;;;;;;;;;1.67;0.33;;;;;29.19;39.91;101827.63;5078333;27;45292;-77
2023/08/16 08:36:39;;;;;;;;;0.67;0.67;;;;;29.18;39.61;101825.97;5078701;27;45483;-77
2023/08/16 08:39:04;;;;;;;;;1.33;0.00;;;;;29.22;39.84;101821.88;5060181;28;48377;-77
2023/08/16 08:41:32;;;;;;;;;1.00;1.00;;;;;29.17;39.60;101811.75;5078173;28;45331;-77
2023/08/16 08:43:59;;;;;;;;;0.00;0.00;;;;;29.23;39.48;101817.31;5060462;28;45435;-77
2023/08/16 08:46:27;;;;;;;;;1.00;1.00;;;;;29.21;39.49;101817.53;5078335;27;45527;-77
2023/08/16 08:48:53;;;;;;;;;1.00;1.00;;;;;29.27;39.50;101818.56;5077784;27;46354;-77
2023/08/16 08:51:19;;;;;;;;;0.33;0.33;;;;;29.28;39.73;101813.00;5059816;28;45305;-77
2023/08/16 08:53:45;;;;;;;;;0.33;0.33;;;;;29.24;39.83;101816.28;5056647;28;45428;-77
2023/08/16 08:56:11;;;;;;;;;0.67;0.67;;;;;29.28;39.29;101817.53;5056804;28;45441;-77
2023/08/16 08:58:40;;;;;;;;;1.00;1.00;;;;;29.29;39.23;101811.97;5057823;28;47216;-77
2023/08/16 09:01:07;;;;;;;;;0.00;0.00;;;;;29.27;39.65;101803.31;5057722;28;45381;-77
2023/08/16 09:03:33;;;;;;;;;0.33;0.33;;;;;29.35;39.27;101826.41;5039452;28;45277;-77
2023/08/16 09:05:59;;;;;;;;;1.00;1.00;;;;;29.37;39.53;101824.34;5057758;28;45345;-77
2023/08/16 09:08:25;;;;;;;;;0.00;0.00;;;;;29.36;39.47;101814.63;5057701;28;46565;-77
2023/08/16 09:10:53;;;;;;;;;0.00;0.00;;;;;29.36;39.25;101820.00;5076488;27;45269;-77
2023/08/16 09:13:19;;;;;;;;;0.00;0.00;;;;;29.25;39.70;101805.34;5078102;27;45395;-77
2023/08/16 09:15:44;;;;;;;;;0.33;0.33;;;;;29.39;39.42;101818.75;5077822;27;45395;-77
2023/08/16 09:18:13;;;;;;;;;0.00;0.00;;;;;29.31;39.74;101801.03;5077460;27;45404;-77
2023/08/16 09:20:40;;;;;;;;;0.00;0.00;;;;;29.40;39.45;101817.75;5077875;27;45411;-78
2023/08/16 09:23:05;;;;;;;;;0.67;0.67;;;;;29.34;39.18;101819.38;5077930;28;45329;-76
2023/08/16 09:25:31;;;;;;;;;1.00;0.67;;;;;29.49;39.65;101837.09;5078047;27;45278;-78
2023/08/16 09:27:56;;;;;;;;;1.00;1.00;;;;;29.46;39.33;101832.19;5077430;28;45410;-77
2023/08/16 09:30:25;;;;;;;;;0.00;0.00;;;;;29.35;39.63;101810.31;5077899;28;45362;-77
2023/08/16 09:32:56;;;;;;;;;0.00;0.00;;;;;29.50;39.16;101834.22;5077442;28;45474;-77
2023/08/16 09:35:29;;;;;;;;;1.00;1.00;;;;;29.52;39.61;101834.00;5077780;27;45295;-77
2023/08/16 09:37:56;;;;;;;;;0.67;0.67;;;;;29.46;39.46;101824.13;5077572;28;45364;-77
2023/08/16 09:40:22;;;;;;;;;1.00;1.00;;;;;29.52;39.43;101834.84;5077487;27;45383;-77
2023/08/16 09:42:47;;;;;;;;;1.00;1.00;;;;;29.51;39.46;101827.81;5077607;28;45220;-76
2023/08/16 09:45:12;;;;;;;;;0.33;0.33;;;;;29.52;39.32;101825.97;5077584;28;45418;-76
2023/08/16 09:47:44;;;;;;;;;0.67;0.67;;;;;29.51;39.29;101827.81;5077284;28;46568;-77
2023/08/16 09:50:10;;;;;;;;;0.00;0.00;;;;;29.57;39.45;101828.84;5077466;28;45377;-77
2023/08/16 09:52:36;;;;;;;;;0.00;0.00;;;;;29.54;39.19;101815.84;5077439;28;45467;-77
2023/08/16 09:55:03;;;;;;;;;1.00;1.00;;;;;29.49;39.14;101811.13;5077447;27;45396;-78
2023/08/16 09:57:29;;;;;;;;;1.00;1.00;;;;;29.57;39.08;101814.59;5077067;27;46268;-77
2023/08/16 09:59:55;;;;;;;;;0.00;0.00;;;;;29.59;39.35;101809.84;5076730;27;45270;-77
2023/08/16 10:02:20;;;;;;;;;0.00;0.00;;;;;29.54;39.19;101804.28;5077400;28;45452;-77
2023/08/16 10:04:46;;;;;;;;;1.00;1.00;;;;;29.56;39.13;101803.06;5077068;27;45459;-77
2023/08/16 10:07:12;;;;;;;;;0.00;0.00;;;;;29.58;39.06;101817.09;5077131;27;46519;-77
2023/08/16 10:09:40;;;;;;;;;0.67;0.67;;;;;29.57;39.24;101803.88;5077009;27;45365;-77
2023/08/16 10:12:06;;;;;;;;;0.00;0.00;;;;;29.51;39.23;101797.50;5077213;28;45391;-77
2023/08/16 10:14:33;;;;;;;;;0.00;0.00;;;;;29.54;39.44;101805.13;5076840;27;45420;-77
2023/08/16 10:17:01;;;;;;;;;0.00;0.00;;;;;29.50;39.27;101782.47;5076759;28;45407;-77
2023/08/16 10:19:32;;;;;;;;;0.00;0.00;;;;;29.55;39.62;101788.03;5076740;28;45305;-78
2023/08/16 10:21:59;;;;;;;;;0.00;0.00;;;;;29.38;39.27;101764.31;5076884;27;45556;-77
2023/08/16 10:24:27;;;;;;;;;0.00;0.00;;;;;29.50;39.02;101780.59;5076943;27;45332;-77
2023/08/16 10:26:56;;;;;;;;;0.00;0.00;;;;;29.49;38.83;101776.28;5076617;28;45467;-77
2023/08/16 10:29:23;;;;;;;;;1.00;1.00;;;;;29.51;39.92;101781.41;5076132;28;45389;-78
2023/08/16 10:31:52;;;;;;;;;0.00;0.00;;;;;29.49;39.07;101772.75;5076839;27;45380;-77
2023/08/16 10:34:20;;;;;;;;;1.00;1.00;;;;;29.46;39.22;101781.25;5076830;27;45348;-78
2023/08/16 10:36:47;;;;;;;;;0.00;0.00;;;;;29.45;39.72;101771.53;5076336;27;45741;-77
2023/08/16 10:39:22;;;;;;;;;0.00;0.00;;;;;29.41;39.60;101765.75;5058294;28;45396;-77
2023/08/16 10:41:49;;;;;;;;;0.00;0.00;;;;;29.47;39.18;101775.66;5076565;28;45320;-77
2023/08/16 10:44:22;;;;;;;;;1.00;1.00;;;;;29.46;39.54;101759.78;5076417;27;45318;-77
2023/08/16 10:46:49;;;;;;;;;0.67;0.67;;;;;29.43;39.25;101752.16;5076097;27;46546;-77
2023/08/16 10:49:14;;;;;;;;;0.00;0.00;;;;;29.33;39.18;101736.53;5076017;28;45415;-77
2023/08/16 10:51:55;;;;;;;;;0.00;0.00;;;;;29.45;39.36;101758.97;5076281;27;45528;-77
2023/08/16 10:54:35;;;;;;;;;0.00;0.00;;;;;29.42;39.13;101759.38;5076809;27;45486;-77
2023/08/16 10:57:05;;;;;;;;;1.00;1.00;;;;;29.45;39.26;101764.31;5075137;27;47010;-77
2023/08/16 10:59:41;;;;;;;;;1.00;1.00;;;;;29.42;39.53;101763.91;5076122;28;45294;-77
2023/08/16 11:02:17;;;;;;;;;0.00;0.00;;;;;29.32;39.30;101738.38;5076839;27;45395;-74
2023/08/16 11:04:43;;;;;;;;;1.00;1.00;;;;;29.42;39.39;101753.19;5076399;28;45313;-77
2023/08/16 11:07:09;;;;;;;;;0.00;0.00;;;;;29.37;39.23;101745.78;5076204;27;46391;-77
2023/08/16 11:09:38;;;;;;;;;1.00;1.00;;;;;29.36;38.99;101742.28;5076176;27;45454;-77
2023/08/16 11:12:03;;;;;;;;;0.00;0.00;;;;;29.36;39.58;101738.75;5076245;27;45379;-76
2023/08/16 11:14:30;;;;;;;;;1.67;1.67;;;;;29.37;39.44;101732.38;5075964;27;45480;-77
2023/08/16 11:16:56;;;;;;;;;0.00;0.00;;;;;29.37;39.40;101732.38;5076226;28;45450;-77
2023/08/16 11:19:25;;;;;;;;;1.33;0.00;;;;;29.36;39.28;101744.94;5058355;28;45510;-76